createdAt,value
2019-01-20T00:00:41.986Z,98.90
2019-01-20T00:03:09.846Z,98.80
2019-01-20T00:06:10.985Z,98.90
2019-01-20T00:08:46.887Z,99.20
2019-01-20T00:12:28.344Z,99.20
2019-01-20T00:15:00.895Z,99.10
2019-01-20T00:17:46.184Z,99.00
2019-01-20T00:20:32.435Z,99.40
2019-01-20T00:26:41.768Z,99.20
2019-01-20T00:29:10.381Z,99.50
2019-01-20T00:31:37.982Z,99.50
2019-01-20T00:34:05.629Z,99.40
2019-01-20T00:36:33.422Z,99.50
2019-01-20T00:39:07.164Z,99.50
2019-01-20T00:41:35.369Z,99.50
2019-01-20T00:44:03.762Z,99.40
2019-01-20T00:46:32.490Z,99.40
2019-01-20T00:52:49.901Z,99.10
2019-01-20T00:55:17.470Z,99.40
2019-01-20T00:57:45.151Z,99.20
2019-01-20T01:00:21.895Z,99.60
2019-01-20T01:03:27.604Z,99.90
2019-01-20T01:05:55.587Z,99.50
2019-01-20T01:08:24.255Z,99.70
2019-01-20T01:10:55.825Z,99.50
2019-01-20T01:17:07.299Z,99.80
2019-01-20T01:23:06.115Z,99.50
2019-01-20T01:25:34.401Z,99.20
2019-01-20T01:31:44.021Z,99.40
2019-01-20T01:34:11.543Z,99.50
2019-01-20T01:36:56.581Z,99.60
2019-01-20T01:39:24.997Z,99.10
2019-01-20T01:41:53.139Z,99.40
2019-01-20T01:44:21.754Z,99.40
2019-01-20T01:46:52.324Z,99.20
2019-01-20T01:49:22.068Z,99.20
2019-01-20T01:52:26.519Z,99.20
2019-01-20T01:54:54.428Z,99.30
2019-01-20T01:57:35.548Z,99.40
2019-01-20T02:00:05.437Z,99.60
2019-01-20T02:02:33.262Z,99.40
2019-01-20T02:05:01.816Z,99.40
2019-01-20T02:07:29.667Z,98.90
2019-01-20T02:09:59.800Z,99.00
2019-01-20T02:13:10.458Z,98.80
2019-01-20T02:15:38.023Z,98.70
2019-01-20T02:18:05.559Z,99.00
2019-01-20T02:20:33.891Z,98.90
2019-01-20T02:23:04.112Z,98.90
2019-01-20T02:25:31.765Z,98.80
2019-01-20T02:28:01.256Z,99.80
2019-01-20T02:30:31.596Z,99.00
2019-01-20T02:33:00.134Z,99.20
2019-01-20T02:35:29.000Z,99.30
2019-01-20T02:37:56.973Z,99.40
2019-01-20T02:40:24.518Z,99.30
2019-01-20T02:42:52.028Z,99.00
2019-01-20T02:45:20.755Z,99.40
2019-01-20T02:47:48.245Z,99.30
2019-01-20T02:50:17.197Z,99.10
2019-01-20T02:53:12.151Z,99.40
2019-01-20T02:55:50.802Z,99.50
2019-01-20T02:58:18.541Z,99.70
2019-01-20T03:00:53.429Z,99.50
2019-01-20T03:03:24.409Z,98.90
2019-01-20T03:05:54.391Z,99.00
2019-01-20T03:08:22.096Z,99.10
2019-01-20T03:10:50.637Z,99.00
2019-01-20T03:13:18.619Z,98.80
2019-01-20T03:15:47.895Z,99.30
2019-01-20T03:18:15.810Z,99.20
2019-01-20T03:20:44.248Z,99.60
2019-01-20T03:23:20.233Z,99.40
2019-01-20T03:26:33.731Z,99.50
2019-01-20T03:29:01.651Z,99.20
2019-01-20T03:31:29.910Z,99.40
2019-01-20T03:34:08.819Z,99.50
2019-01-20T03:36:42.457Z,99.50
2019-01-20T03:39:19.386Z,99.20
2019-01-20T03:41:47.502Z,99.00
2019-01-20T03:44:17.508Z,99.70
2019-01-20T03:46:45.315Z,99.60
2019-01-20T03:49:13.548Z,99.70
2019-01-20T03:51:42.205Z,99.30
2019-01-20T03:54:09.718Z,99.60
2019-01-20T03:57:10.437Z,99.70
2019-01-20T03:59:38.276Z,99.70
2019-01-20T04:02:32.733Z,99.80
2019-01-20T04:05:00.816Z,99.60
2019-01-20T04:07:29.202Z,99.70
2019-01-20T04:09:56.933Z,99.70
2019-01-20T04:12:32.594Z,99.90
2019-01-20T04:15:00.558Z,99.90
2019-01-20T04:17:28.160Z,99.70
2019-01-20T04:19:56.311Z,99.90
2019-01-20T04:22:42.013Z,99.90
2019-01-20T04:25:16.360Z,99.40
2019-01-20T04:27:43.875Z,99.50
2019-01-20T04:30:13.767Z,99.60
2019-01-20T04:32:46.529Z,99.90
2019-01-20T04:35:14.843Z,99.90
2019-01-20T04:37:42.937Z,99.90
2019-01-20T04:40:15.496Z,99.90
2019-01-20T04:42:43.103Z,99.90
2019-01-20T04:45:11.519Z,99.90
2019-01-20T04:47:39.910Z,99.80
2019-01-20T04:50:09.841Z,99.50
2019-01-20T04:52:37.872Z,99.90
2019-01-20T04:55:07.666Z,99.90
2019-01-20T04:57:47.782Z,99.90
2019-01-20T05:00:17.440Z,99.50
2019-01-20T05:03:01.569Z,99.80
2019-01-20T05:05:32.086Z,99.90
2019-01-20T05:08:00.457Z,99.70
2019-01-20T05:10:28.123Z,99.90
2019-01-20T05:12:56.002Z,99.80
2019-01-20T05:15:24.067Z,99.90
2019-01-20T05:17:58.981Z,99.90
2019-01-20T05:20:29.360Z,99.90
2019-01-20T05:23:08.466Z,99.90
2019-01-20T05:25:36.396Z,99.90
2019-01-20T05:28:05.081Z,99.90
2019-01-20T05:30:35.291Z,99.90
2019-01-20T05:33:03.192Z,99.90
2019-01-20T05:35:31.712Z,99.90
2019-01-20T05:37:59.747Z,99.90
2019-01-20T05:40:28.050Z,99.90
2019-01-20T05:42:55.850Z,99.90
2019-01-20T05:45:24.715Z,99.90
2019-01-20T05:47:52.946Z,99.90
2019-01-20T05:50:30.135Z,99.80
2019-01-20T05:52:57.958Z,99.90
2019-01-20T05:55:26.470Z,99.90
2019-01-20T05:57:55.415Z,99.90
2019-01-20T06:00:30.207Z,99.60
2019-01-20T06:02:58.188Z,99.60
2019-01-20T06:05:26.474Z,99.90
2019-01-20T06:07:54.460Z,99.90
2019-01-20T06:10:22.341Z,99.90
2019-01-20T06:12:54.353Z,99.50
2019-01-20T06:15:20.308Z,99.90
2019-01-20T06:17:47.772Z,99.90
2019-01-20T06:20:17.599Z,99.50
2019-01-20T06:22:45.812Z,99.70
2019-01-20T06:25:14.213Z,99.80
2019-01-20T06:27:41.815Z,99.90
2019-01-20T06:30:16.311Z,99.90
2019-01-20T06:32:46.856Z,99.90
2019-01-20T06:35:14.695Z,99.90
2019-01-20T06:37:43.538Z,99.90
2019-01-20T06:40:11.618Z,99.90
2019-01-20T06:42:39.876Z,99.90
2019-01-20T06:45:08.589Z,99.80
2019-01-20T06:47:37.961Z,99.80
2019-01-20T06:50:08.519Z,99.90
2019-01-20T06:52:37.469Z,99.90
2019-01-20T06:55:05.488Z,99.70
2019-01-20T06:57:33.375Z,99.80
2019-01-20T07:00:22.171Z,99.90
2019-01-20T07:02:50.575Z,99.90
2019-01-20T07:05:20.962Z,99.90
2019-01-20T07:07:49.108Z,99.90
2019-01-20T07:10:17.342Z,99.90
2019-01-20T07:12:45.266Z,99.90
2019-01-20T07:15:20.897Z,99.90
2019-01-20T07:17:48.842Z,99.90
2019-01-20T07:20:20.279Z,99.90
2019-01-20T07:22:47.878Z,99.80
2019-01-20T07:25:15.806Z,99.40
2019-01-20T07:27:43.675Z,99.70
2019-01-20T07:30:18.686Z,99.40
2019-01-20T07:32:47.077Z,99.40
2019-01-20T07:35:21.088Z,99.50
2019-01-20T07:37:51.662Z,99.40
2019-01-20T07:40:22.581Z,99.30
2019-01-20T07:42:50.386Z,99.20
2019-01-20T07:45:17.932Z,99.00
2019-01-20T07:47:45.834Z,99.00
2019-01-20T07:50:24.634Z,99.10
2019-01-20T07:52:55.165Z,99.00
2019-01-20T07:55:23.849Z,99.10
2019-01-20T07:57:58.016Z,98.90
2019-01-20T08:00:27.063Z,98.80
2019-01-20T08:02:55.457Z,98.80
2019-01-20T08:05:27.455Z,98.60
2019-01-20T08:07:55.377Z,98.30
2019-01-20T08:10:25.402Z,98.30
2019-01-20T08:12:53.544Z,98.10
2019-01-20T08:15:21.411Z,97.80
2019-01-20T08:17:55.535Z,97.70
2019-01-20T08:20:27.130Z,97.60
2019-01-20T08:22:56.107Z,97.70
2019-01-20T08:25:25.047Z,97.60
2019-01-20T08:27:53.285Z,97.40
2019-01-20T08:30:24.889Z,97.70
2019-01-20T08:33:01.854Z,97.70
2019-01-20T08:35:30.578Z,97.60
2019-01-20T08:37:58.476Z,97.30
2019-01-20T08:40:28.228Z,97.20
2019-01-20T08:42:56.214Z,96.80
2019-01-20T08:46:12.237Z,96.90
2019-01-20T08:48:40.443Z,97.20
2019-01-20T08:51:08.211Z,96.20
2019-01-20T08:53:55.994Z,96.40
2019-01-20T08:56:23.882Z,96.30
2019-01-20T08:58:52.063Z,96.10
2019-01-20T09:01:19.823Z,96.10
2019-01-20T09:03:47.924Z,95.50
2019-01-20T09:06:16.705Z,95.10
2019-01-20T09:08:44.518Z,95.30
2019-01-20T09:11:13.072Z,95.60
2019-01-20T09:13:40.935Z,95.20
2019-01-20T09:16:14.826Z,95.30
2019-01-20T09:18:42.677Z,95.30
2019-01-20T09:21:10.119Z,95.30
2019-01-20T09:23:37.722Z,94.50
2019-01-20T09:26:11.650Z,94.40
2019-01-20T09:28:40.532Z,93.70
2019-01-20T09:31:08.291Z,93.70
2019-01-20T09:33:37.195Z,93.70
2019-01-20T09:36:05.265Z,93.50
2019-01-20T09:38:33.620Z,93.40
2019-01-20T09:41:01.146Z,93.20
2019-01-20T09:43:28.991Z,92.50
2019-01-20T09:45:56.562Z,92.10
2019-01-20T09:48:25.235Z,92.20
2019-01-20T09:50:53.217Z,91.30
2019-01-20T09:53:21.578Z,91.60
2019-01-20T09:55:50.441Z,91.10
2019-01-20T09:58:19.420Z,90.00
2019-01-20T10:00:47.559Z,90.50
2019-01-20T10:03:16.332Z,90.30
2019-01-20T10:05:44.996Z,90.40
2019-01-20T10:08:13.414Z,90.20
2019-01-20T10:10:41.306Z,89.40
2019-01-20T10:13:09.217Z,90.20
2019-01-20T10:15:36.713Z,89.30
2019-01-20T10:18:04.712Z,88.20
2019-01-20T10:20:51.733Z,88.10
2019-01-20T10:23:19.523Z,87.80
2019-01-20T10:25:47.413Z,87.20
2019-01-20T10:28:18.270Z,86.70
2019-01-20T10:30:46.197Z,86.40
2019-01-20T10:33:14.148Z,87.80
2019-01-20T10:36:01.412Z,86.20
2019-01-20T10:38:29.403Z,85.40
2019-01-20T10:40:57.466Z,83.10
2019-01-20T10:43:26.854Z,81.90
2019-01-20T10:45:55.352Z,81.50
2019-01-20T10:48:23.328Z,80.60
2019-01-20T10:50:52.130Z,80.10
2019-01-20T10:53:20.926Z,80.40
2019-01-20T10:55:48.478Z,79.70
2019-01-20T10:58:16.390Z,81.20
2019-01-20T11:00:43.971Z,80.20
2019-01-20T11:03:18.319Z,80.00
2019-01-20T11:05:46.328Z,78.30
2019-01-20T11:08:15.084Z,77.50
2019-01-20T11:10:43.046Z,77.30
2019-01-20T11:13:11.027Z,77.20
2019-01-20T11:15:39.192Z,78.00
2019-01-20T11:18:11.322Z,77.80
2019-01-20T11:20:58.457Z,76.00
2019-01-20T11:23:26.678Z,74.40
2019-01-20T11:25:54.941Z,74.10
2019-01-20T11:28:28.938Z,73.90
2019-01-20T11:30:59.119Z,74.50
2019-01-20T11:33:27.676Z,76.40
2019-01-20T11:35:56.195Z,74.70
2019-01-20T11:38:28.920Z,77.40
2019-01-20T11:41:05.475Z,76.10
2019-01-20T11:43:33.287Z,73.80
2019-01-20T11:46:01.153Z,74.70
2019-01-20T11:48:29.980Z,75.60
2019-01-20T11:50:57.583Z,74.50
2019-01-20T11:53:25.157Z,73.50
2019-01-20T11:55:53.580Z,75.50
2019-01-20T11:58:21.847Z,77.20
2019-01-20T12:00:49.806Z,76.70
2019-01-20T12:03:17.643Z,73.80
2019-01-20T12:05:46.342Z,72.30
2019-01-20T12:08:15.184Z,72.90
2019-01-20T12:10:43.341Z,74.30
2019-01-20T12:13:12.704Z,73.10
2019-01-20T12:15:41.241Z,73.20
2019-01-20T12:18:09.112Z,72.70
2019-01-20T12:20:37.373Z,72.40
2019-01-20T12:23:06.186Z,71.50
2019-01-20T12:25:34.970Z,69.90
2019-01-20T12:28:03.870Z,69.70
2019-01-20T12:30:33.581Z,71.30
2019-01-20T12:33:01.415Z,73.00
2019-01-20T12:35:29.326Z,71.10
2019-01-20T12:37:57.084Z,70.00
2019-01-20T12:40:27.778Z,69.50
2019-01-20T12:42:55.322Z,68.60
2019-01-20T12:45:22.875Z,68.00
2019-01-20T12:47:50.630Z,67.60
2019-01-20T12:50:19.392Z,65.60
2019-01-20T12:52:47.815Z,63.90
2019-01-20T12:55:16.367Z,66.10
2019-01-20T12:57:44.542Z,69.00
2019-01-20T13:00:14.357Z,69.00
2019-01-20T13:02:42.579Z,71.80
2019-01-20T13:05:10.462Z,73.60
2019-01-20T13:07:38.750Z,73.40
2019-01-20T13:10:08.588Z,73.80
2019-01-20T13:12:36.209Z,74.50
2019-01-20T13:15:12.141Z,75.00
2019-01-20T13:17:40.885Z,73.90
2019-01-20T13:20:14.087Z,73.10
2019-01-20T13:22:41.538Z,71.40
2019-01-20T13:25:11.212Z,70.70
2019-01-20T13:27:39.470Z,72.80
2019-01-20T13:30:11.052Z,73.30
2019-01-20T13:32:39.707Z,73.40
2019-01-20T13:35:07.941Z,73.60
2019-01-20T13:37:36.518Z,73.30
2019-01-20T13:40:06.789Z,73.60
2019-01-20T13:42:34.956Z,73.30
2019-01-20T13:45:03.163Z,70.90
2019-01-20T13:47:31.183Z,68.40
2019-01-20T13:49:59.156Z,69.50
2019-01-20T13:52:27.320Z,71.40
2019-01-20T13:54:55.230Z,73.10
2019-01-20T13:57:22.715Z,73.60
2019-01-20T13:59:50.698Z,73.20
2019-01-20T14:02:18.324Z,68.90
2019-01-20T14:04:46.483Z,67.80
2019-01-20T14:07:14.245Z,69.30
2019-01-20T14:09:42.127Z,69.70
2019-01-20T14:12:10.269Z,68.40
2019-01-20T14:14:38.129Z,64.80
2019-01-20T14:17:05.719Z,66.50
2019-01-20T14:19:33.558Z,64.20
2019-01-20T14:22:01.887Z,62.00
2019-01-20T14:24:29.470Z,62.00
2019-01-20T14:26:57.435Z,61.50
2019-01-20T14:29:25.991Z,61.30
2019-01-20T14:31:53.741Z,61.40
2019-01-20T14:34:22.780Z,62.30
2019-01-20T14:36:50.628Z,62.40
2019-01-20T14:39:18.135Z,62.60
2019-01-20T14:41:45.762Z,66.90
2019-01-20T14:44:14.008Z,70.30
2019-01-20T14:46:42.252Z,72.90
2019-01-20T14:49:09.803Z,75.40
2019-01-20T14:51:56.772Z,76.80
2019-01-20T14:54:25.007Z,78.20
2019-01-20T14:56:52.918Z,79.70
2019-01-20T14:59:21.103Z,80.40
2019-01-20T15:01:55.171Z,81.40
2019-01-20T15:04:23.319Z,82.50
2019-01-20T15:06:51.204Z,83.50
2019-01-20T15:09:18.763Z,84.80
2019-01-20T15:11:46.360Z,84.80
2019-01-20T15:14:14.619Z,85.90
2019-01-20T15:16:47.420Z,85.90
2019-01-20T15:19:23.322Z,86.50
2019-01-20T15:21:57.151Z,86.70
2019-01-20T15:24:25.140Z,87.00
2019-01-20T15:26:56.596Z,87.50
2019-01-20T15:29:24.109Z,87.80
2019-01-20T15:31:52.029Z,88.00
2019-01-20T15:34:20.875Z,88.20
2019-01-20T15:36:49.522Z,89.40
2019-01-20T15:39:17.429Z,90.00
2019-01-20T15:41:45.260Z,89.50
2019-01-20T15:44:22.234Z,89.60
2019-01-20T15:46:54.349Z,90.20
2019-01-20T15:49:23.654Z,90.00
2019-01-20T15:51:51.953Z,90.40
2019-01-20T15:54:19.646Z,90.40
2019-01-20T15:56:47.222Z,90.90
2019-01-20T15:59:15.131Z,90.80
2019-01-20T16:01:44.596Z,91.20
2019-01-20T16:04:13.196Z,91.10
2019-01-20T16:06:42.266Z,91.10
2019-01-20T16:09:09.888Z,91.20
2019-01-20T16:11:38.078Z,91.10
2019-01-20T16:14:06.151Z,91.00
2019-01-20T16:16:33.791Z,91.10
2019-01-20T16:19:01.666Z,91.00
2019-01-20T16:21:31.917Z,91.10
2019-01-20T16:24:05.865Z,91.40
2019-01-20T16:26:34.059Z,91.90
2019-01-20T16:29:01.995Z,92.20
2019-01-20T16:31:30.124Z,92.50
2019-01-20T16:33:57.704Z,92.70
2019-01-20T16:36:25.550Z,92.90
2019-01-20T16:38:53.528Z,93.00
2019-01-20T16:41:21.079Z,93.00
2019-01-20T16:43:49.375Z,93.30
2019-01-20T16:46:17.041Z,93.60
2019-01-20T16:48:44.585Z,93.50
2019-01-20T16:51:12.268Z,93.10
2019-01-20T16:53:40.485Z,93.20
2019-01-20T16:56:08.519Z,93.20
2019-01-20T16:58:36.852Z,93.20
2019-01-20T17:01:04.811Z,92.70
2019-01-20T17:03:33.082Z,93.50
2019-01-20T17:06:12.497Z,93.30
2019-01-20T17:08:41.132Z,93.10
2019-01-20T17:11:08.610Z,93.00
2019-01-20T17:13:40.305Z,93.30
2019-01-20T17:16:08.017Z,93.40
2019-01-20T17:18:36.220Z,93.90
2019-01-20T17:21:03.893Z,94.10
2019-01-20T17:23:31.707Z,94.10
2019-01-20T17:25:59.333Z,94.40
2019-01-20T17:28:27.192Z,94.50
2019-01-20T17:30:55.195Z,94.70
2019-01-20T17:33:23.580Z,94.50
2019-01-20T17:35:51.068Z,94.60
2019-01-20T17:38:18.881Z,94.90
2019-01-20T17:40:46.766Z,95.30
2019-01-20T17:43:15.171Z,95.30
2019-01-20T17:45:49.591Z,95.10
2019-01-20T17:48:13.362Z,95.50
2019-01-20T17:50:42.436Z,95.20
2019-01-20T17:53:10.738Z,95.30
2019-01-20T17:55:39.049Z,95.70
2019-01-20T17:58:06.704Z,95.70
2019-01-20T18:00:40.830Z,96.00
2019-01-20T18:03:08.998Z,95.70
2019-01-20T18:05:38.094Z,95.50
2019-01-20T18:08:05.638Z,95.60
2019-01-20T18:10:33.665Z,95.70
2019-01-20T18:13:01.901Z,95.50
2019-01-20T18:15:29.767Z,95.70
2019-01-20T18:17:58.961Z,96.30
2019-01-20T18:20:27.571Z,96.60
2019-01-20T18:22:55.444Z,96.90
2019-01-20T18:25:26.100Z,97.20
2019-01-20T18:27:56.557Z,97.40
2019-01-20T18:30:25.372Z,97.80
2019-01-20T18:32:53.830Z,97.60
2019-01-20T18:35:22.919Z,97.40
2019-01-20T18:37:51.210Z,97.50
2019-01-20T18:40:19.415Z,97.60
2019-01-20T18:42:46.979Z,97.90
2019-01-20T18:45:17.140Z,97.40
2019-01-20T18:47:45.032Z,97.00
2019-01-20T18:50:18.134Z,96.90
2019-01-20T18:52:46.371Z,97.10
2019-01-20T18:55:14.268Z,97.40
2019-01-20T18:57:42.506Z,97.50
2019-01-20T19:00:25.010Z,97.60
2019-01-20T19:02:53.008Z,97.70
2019-01-20T19:05:20.874Z,97.70
2019-01-20T19:07:55.528Z,97.70
2019-01-20T19:10:21.273Z,97.70
2019-01-20T19:12:49.199Z,97.60
2019-01-20T19:15:17.693Z,98.00
2019-01-20T19:17:45.951Z,98.10
2019-01-20T19:20:19.093Z,98.90
2019-01-20T19:22:49.400Z,98.50
2019-01-20T19:25:17.964Z,98.20
2019-01-20T19:27:45.908Z,98.20
2019-01-20T19:30:28.161Z,97.90
2019-01-20T19:32:56.147Z,98.10
2019-01-20T19:35:24.175Z,98.40
2019-01-20T19:37:53.271Z,98.50
2019-01-20T19:40:21.540Z,98.70
2019-01-20T19:42:49.282Z,98.50
2019-01-20T19:45:17.764Z,98.40
2019-01-20T19:47:45.677Z,98.40
2019-01-20T19:50:13.867Z,98.60
2019-01-20T19:52:41.404Z,98.80
2019-01-20T19:55:20.049Z,98.40
2019-01-20T19:57:47.679Z,98.60
2019-01-20T20:00:18.006Z,98.60
2019-01-20T20:02:45.964Z,98.80
2019-01-20T20:05:15.212Z,98.80
2019-01-20T20:07:43.192Z,98.80
2019-01-20T20:10:12.484Z,98.60
2019-01-20T20:12:40.367Z,98.30
2019-01-20T20:15:11.389Z,99.00
2019-01-20T20:17:38.855Z,99.10
2019-01-20T20:20:07.798Z,98.90
2019-01-20T20:22:36.019Z,99.10
2019-01-20T20:25:04.593Z,99.30
2019-01-20T20:27:32.410Z,99.10
2019-01-20T20:30:00.355Z,99.60
2019-01-20T20:32:28.403Z,99.40
2019-01-20T20:34:55.951Z,99.30
2019-01-20T20:37:23.451Z,99.20
2019-01-20T20:39:51.281Z,99.50
2019-01-20T20:42:19.180Z,99.60
2019-01-20T20:44:46.670Z,99.50
2019-01-20T20:47:14.372Z,99.40
2019-01-20T20:49:42.192Z,99.60
2019-01-20T20:52:09.710Z,99.60
2019-01-20T20:54:37.661Z,99.60
2019-01-20T20:57:06.196Z,99.50
2019-01-20T20:59:53.174Z,99.40
2019-01-20T21:02:20.943Z,99.60
2019-01-20T21:04:51.838Z,99.10
2019-01-20T21:07:19.737Z,98.80
2019-01-20T21:09:47.569Z,99.00
2019-01-20T21:12:15.776Z,98.70
2019-01-20T21:14:43.661Z,98.80
2019-01-20T21:17:11.568Z,98.60
2019-01-20T21:19:39.817Z,98.30
2019-01-20T21:22:07.395Z,98.40
2019-01-20T21:24:34.863Z,98.20
2019-01-20T21:27:04.454Z,97.90
2019-01-20T21:29:32.324Z,97.90
2019-01-20T21:32:00.186Z,97.60
2019-01-20T21:34:30.049Z,97.50
2019-01-20T21:36:57.555Z,97.60
2019-01-20T21:39:25.541Z,97.50
2019-01-20T21:41:53.041Z,97.60
2019-01-20T21:44:22.582Z,97.60
2019-01-20T21:46:53.027Z,97.00
2019-01-20T21:49:21.672Z,96.80
2019-01-20T21:51:49.251Z,97.20
2019-01-20T21:54:18.104Z,97.20
2019-01-20T21:56:45.909Z,97.30
2019-01-20T21:59:14.258Z,97.20
2019-01-20T22:01:41.759Z,96.90
2019-01-20T22:04:10.302Z,96.90
2019-01-20T22:06:39.619Z,97.10
2019-01-20T22:09:09.659Z,96.70
2019-01-20T22:11:37.153Z,97.40
2019-01-20T22:14:06.035Z,96.70
2019-01-20T22:16:36.156Z,96.80
2019-01-20T22:19:23.103Z,96.90
2019-01-20T22:21:50.912Z,97.10
2019-01-20T22:24:18.876Z,97.20
2019-01-20T22:26:47.003Z,97.10
2019-01-20T22:29:14.911Z,97.00
2019-01-20T22:31:42.713Z,96.80
2019-01-20T22:34:10.265Z,96.80
2019-01-20T22:36:37.763Z,96.70
2019-01-20T22:39:07.060Z,96.60
2019-01-20T22:41:35.060Z,96.40
2019-01-20T22:44:02.987Z,96.40
2019-01-20T22:46:30.811Z,96.20
2019-01-20T22:48:58.350Z,96.30
2019-01-20T22:51:26.190Z,96.30
2019-01-20T22:53:53.672Z,96.20
2019-01-20T22:56:21.443Z,96.40
2019-01-20T22:58:50.989Z,96.10
2019-01-20T23:01:22.650Z,96.20
2019-01-20T23:03:52.924Z,96.50
2019-01-20T23:06:21.057Z,96.10
2019-01-20T23:08:48.595Z,96.30
2019-01-20T23:11:16.836Z,96.00
2019-01-20T23:13:44.843Z,95.90
2019-01-20T23:16:12.363Z,96.20
2019-01-20T23:18:40.670Z,96.20
2019-01-20T23:21:08.629Z,96.30
2019-01-20T23:23:36.949Z,95.90
2019-01-20T23:26:04.715Z,96.00
2019-01-20T23:28:32.981Z,96.00
2019-01-20T23:31:00.979Z,96.30
2019-01-20T23:33:28.987Z,96.40
2019-01-20T23:35:56.842Z,96.20
2019-01-20T23:38:24.727Z,96.10
2019-01-20T23:40:52.934Z,95.70
2019-01-20T23:43:21.116Z,96.00
2019-01-20T23:45:48.715Z,96.10
2019-01-20T23:48:16.294Z,96.10
2019-01-20T23:50:44.851Z,96.10
2019-01-20T23:53:12.623Z,95.80
2019-01-20T23:55:40.971Z,95.20
2019-01-20T23:58:08.971Z,94.30
